sensor_id;sensor_type;location;lat;lon;timestamp;pressure;altitude;pressure_sealevel;temperature;humidity
43430;BME280;29028;43.234;27.896;2022-10-31T05:01:45;100461.25;;;15.98;87.96
43430;BME280;29028;43.234;27.896;2022-10-31T05:02:08;100458.34;;;16.00;87.89
43430;BME280;29028;43.234;27.896;2022-10-31T05:02:29;100467.50;;;16.05;87.86
43430;BME280;29028;43.234;27.896;2022-10-31T05:02:51;100466.25;;;16.08;87.68
43430;BME280;29028;43.234;27.896;2022-10-31T05:03:12;100463.28;;;16.09;87.42
43430;BME280;29028;43.234;27.896;2022-10-31T05:03:34;100468.72;;;16.09;87.37
43430;BME280;29028;43.234;27.896;2022-10-31T05:03:55;100470.84;;;16.07;87.50
43430;BME280;29028;43.234;27.896;2022-10-31T05:04:16;100468.97;;;16.08;87.40
43430;BME280;29028;43.234;27.896;2022-10-31T05:04:36;100466.19;;;16.14;88.42
43430;BME280;29028;43.234;27.896;2022-10-31T05:04:57;100473.03;;;16.23;90.56
43430;BME280;29028;43.234;27.896;2022-10-31T05:05:22;100475.03;;;16.34;93.98
43430;BME280;29028;43.234;27.896;2022-10-31T05:05:43;100467.47;;;16.43;96.53
43430;BME280;29028;43.234;27.896;2022-10-31T05:06:04;100474.09;;;16.53;97.90
43430;BME280;29028;43.234;27.896;2022-10-31T05:06:25;100465.66;;;16.61;98.52
43430;BME280;29028;43.234;27.896;2022-10-31T05:06:48;100469.78;;;16.70;98.48
43430;BME280;29028;43.234;27.896;2022-10-31T05:07:09;100471.94;;;16.86;98.98
43430;BME280;29028;43.234;27.896;2022-10-31T05:07:29;100475.56;;;16.98;100.00
43430;BME280;29028;43.234;27.896;2022-10-31T05:07:50;100467.41;;;16.98;100.00
43430;BME280;29028;43.234;27.896;2022-10-31T05:08:12;100470.47;;;17.08;99.73
43430;BME280;29028;43.234;27.896;2022-10-31T05:08:33;100470.63;;;17.13;99.32
43430;BME280;29028;43.234;27.896;2022-10-31T05:08:54;100472.19;;;17.21;99.93
43430;BME280;29028;43.234;27.896;2022-10-31T05:09:15;100473.72;;;17.35;100.00
43430;BME280;29028;43.234;27.896;2022-10-31T05:09:37;100468.47;;;17.40;100.00
43430;BME280;29028;43.234;27.896;2022-10-31T05:09:57;100473.75;;;17.53;100.00
43430;BME280;29028;43.234;27.896;2022-10-31T05:10:20;100479.56;;;17.56;99.70
43430;BME280;29028;43.234;27.896;2022-10-31T05:10:42;100478.03;;;17.60;98.86
43430;BME280;29028;43.234;27.896;2022-10-31T05:11:04;100482.34;;;17.68;98.53
43430;BME280;29028;43.234;27.896;2022-10-31T05:11:25;100488.09;;;17.78;98.18
43430;BME280;29028;43.234;27.896;2022-10-31T05:11:46;100491.41;;;17.80;96.80
43430;BME280;29028;43.234;27.896;2022-10-31T05:12:07;100495.72;;;17.87;95.99
43430;BME280;29028;43.234;27.896;2022-10-31T05:12:29;100501.47;;;17.97;96.12
43430;BME280;29028;43.234;27.896;2022-10-31T05:12:51;100501.38;;;18.04;95.11
43430;BME280;29028;43.234;27.896;2022-10-31T05:13:12;100494.38;;;18.08;93.82
43430;BME280;29028;43.234;27.896;2022-10-31T05:13:35;100497.38;;;18.06;91.88
43430;BME280;29028;43.234;27.896;2022-10-31T05:13:55;100503.75;;;18.00;89.68
43430;BME280;29028;43.234;27.896;2022-10-31T05:14:17;100508.13;;;18.01;88.85
43430;BME280;29028;43.234;27.896;2022-10-31T05:14:38;100508.19;;;17.95;86.53
43430;BME280;29028;43.234;27.896;2022-10-31T05:14:59;100503.22;;;17.92;85.50
43430;BME280;29028;43.234;27.896;2022-10-31T05:15:21;100510.84;;;17.83;83.35
43430;BME280;29028;43.234;27.896;2022-10-31T05:15:43;100501.25;;;17.81;83.24
43430;BME280;29028;43.234;27.896;2022-10-31T05:16:05;100504.06;;;17.74;81.36
43430;BME280;29028;43.234;27.896;2022-10-31T05:16:26;100501.06;;;17.64;80.65
43430;BME280;29028;43.234;27.896;2022-10-31T05:16:48;100505.44;;;17.65;80.85
43430;BME280;29028;43.234;27.896;2022-10-31T05:17:09;100498.78;;;17.61;80.85
43430;BME280;29028;43.234;27.896;2022-10-31T05:17:31;100499.53;;;17.68;80.51
43430;BME280;29028;43.234;27.896;2022-10-31T05:17:53;100498.78;;;17.61;80.43
43430;BME280;29028;43.234;27.896;2022-10-31T05:18:14;100500.75;;;17.54;80.36
43430;BME280;29028;43.234;27.896;2022-10-31T05:18:35;100497.72;;;17.44;80.58
43430;BME280;29028;43.234;27.896;2022-10-31T05:18:56;100494.94;;;17.51;80.68
43430;BME280;29028;43.234;27.896;2022-10-31T05:19:18;100491.13;;;17.34;80.45
43430;BME280;29028;43.234;27.896;2022-10-31T05:19:38;100491.69;;;17.42;80.48
43430;BME280;29028;43.234;27.896;2022-10-31T05:19:59;100492.19;;;17.33;80.77
43430;BME280;29028;43.234;27.896;2022-10-31T05:20:22;100494.53;;;17.29;80.88
43430;BME280;29028;43.234;27.896;2022-10-31T05:20:43;100494.91;;;17.33;81.12
43430;BME280;29028;43.234;27.896;2022-10-31T05:21:05;100498.38;;;17.22;81.17
43430;BME280;29028;43.234;27.896;2022-10-31T05:21:25;100491.19;;;17.27;81.36
43430;BME280;29028;43.234;27.896;2022-10-31T05:21:46;100492.41;;;17.31;80.97
43430;BME280;29028;43.234;27.896;2022-10-31T05:22:07;100491.56;;;17.31;80.76
43430;BME280;29028;43.234;27.896;2022-10-31T05:22:29;100495.19;;;17.25;80.17
43430;BME280;29028;43.234;27.896;2022-10-31T05:22:52;100494.66;;;17.34;80.28
43430;BME280;29028;43.234;27.896;2022-10-31T05:23:13;100485.66;;;17.34;79.85
43430;BME280;29028;43.234;27.896;2022-10-31T05:23:34;100500.50;;;17.38;79.85
43430;BME280;29028;43.234;27.896;2022-10-31T05:23:56;100500.34;;;17.33;80.01
43430;BME280;29028;43.234;27.896;2022-10-31T05:24:17;100496.06;;;17.43;80.18
43430;BME280;29028;43.234;27.896;2022-10-31T05:24:37;100496.19;;;17.30;79.96
43430;BME280;29028;43.234;27.896;2022-10-31T05:24:58;100501.16;;;17.33;79.98
43430;BME280;29028;43.234;27.896;2022-10-31T05:25:20;100487.75;;;17.32;79.69
43430;BME280;29028;43.234;27.896;2022-10-31T05:25:42;100501.78;;;17.35;79.77
43430;BME280;29028;43.234;27.896;2022-10-31T05:26:03;100507.22;;;17.35;79.85
43430;BME280;29028;43.234;27.896;2022-10-31T05:26:24;100507.66;;;17.32;79.83
43430;BME280;29028;43.234;27.896;2022-10-31T05:26:45;100509.16;;;17.28;79.90
43430;BME280;29028;43.234;27.896;2022-10-31T05:27:07;100498.13;;;17.23;80.32
43430;BME280;29028;43.234;27.896;2022-10-31T05:27:28;100502.38;;;17.19;80.45
43430;BME280;29028;43.234;27.896;2022-10-31T05:27:50;100500.72;;;17.18;80.73
43430;BME280;29028;43.234;27.896;2022-10-31T05:28:11;100503.44;;;17.18;81.05
43430;BME280;29028;43.234;27.896;2022-10-31T05:28:33;100501.53;;;17.19;80.75
43430;BME280;29028;43.234;27.896;2022-10-31T05:28:53;100500.72;;;17.18;80.22
43430;BME280;29028;43.234;27.896;2022-10-31T05:29:14;100502.47;;;17.06;80.17
43430;BME280;29028;43.234;27.896;2022-10-31T05:29:35;100502.94;;;17.03;80.59
43430;BME280;29028;43.234;27.896;2022-10-31T05:29:56;100506.31;;;16.99;80.35
43430;BME280;29028;43.234;27.896;2022-10-31T05:30:19;100499.59;;;17.01;80.21
43430;BME280;29028;43.234;27.896;2022-10-31T05:30:40;100500.28;;;16.97;80.20
43430;BME280;29028;43.234;27.896;2022-10-31T05:31:01;100503.38;;;17.00;80.00
43430;BME280;29028;43.234;27.896;2022-10-31T05:31:22;100506.72;;;17.02;80.44
43430;BME280;29028;43.234;27.896;2022-10-31T05:31:44;100510.44;;;17.08;80.37
43430;BME280;29028;43.234;27.896;2022-10-31T05:32:06;100506.44;;;17.10;80.23
43430;BME280;29028;43.234;27.896;2022-10-31T05:32:27;100509.31;;;17.15;80.20
43430;BME280;29028;43.234;27.896;2022-10-31T05:32:50;100505.19;;;17.06;80.50
43430;BME280;29028;43.234;27.896;2022-10-31T05:33:12;100502.56;;;17.00;80.77
43430;BME280;29028;43.234;27.896;2022-10-31T05:33:33;100511.03;;;17.10;80.54
43430;BME280;29028;43.234;27.896;2022-10-31T05:33:54;100511.28;;;17.08;80.55
43430;BME280;29028;43.234;27.896;2022-10-31T05:34:14;100504.56;;;17.11;80.60
43430;BME280;29028;43.234;27.896;2022-10-31T05:34:36;100506.56;;;16.97;80.72
43430;BME280;29028;43.234;27.896;2022-10-31T05:34:57;100512.28;;;16.89;81.08
43430;BME280;29028;43.234;27.896;2022-10-31T05:35:19;100515.28;;;16.81;81.49
43430;BME280;29028;43.234;27.896;2022-10-31T05:35:40;100514.91;;;16.78;81.69
43430;BME280;29028;43.234;27.896;2022-10-31T05:36:02;100505.69;;;16.79;81.75
43430;BME280;29028;43.234;27.896;2022-10-31T05:36:23;100511.34;;;16.77;81.79
43430;BME280;29028;43.234;27.896;2022-10-31T05:36:44;100513.63;;;16.80;81.77
43430;BME280;29028;43.234;27.896;2022-10-31T05:37:05;100513.38;;;16.82;81.79
43430;BME280;29028;43.234;27.896;2022-10-31T05:37:25;100510.44;;;16.83;81.71
43430;BME280;29028;43.234;27.896;2022-10-31T05:37:46;100507.72;;;16.83;81.62
43430;BME280;29028;43.234;27.896;2022-10-31T05:38:09;100510.44;;;16.83;81.69
43430;BME280;29028;43.234;27.896;2022-10-31T05:38:29;100515.63;;;16.91;81.79
43430;BME280;29028;43.234;27.896;2022-10-31T05:38:50;100512.31;;;16.83;81.68
43430;BME280;29028;43.234;27.896;2022-10-31T05:39:11;100516.56;;;16.79;81.98
43430;BME280;29028;43.234;27.896;2022-10-31T05:39:32;100518.06;;;16.75;82.28
43430;BME280;29028;43.234;27.896;2022-10-31T05:39:54;100520.16;;;16.73;82.54
43430;BME280;29028;43.234;27.896;2022-10-31T05:40:18;100521.06;;;16.67;81.65
43430;BME280;29028;43.234;27.896;2022-10-31T05:40:39;100524.41;;;16.62;81.87
43430;BME280;29028;43.234;27.896;2022-10-31T05:41:00;100517.66;;;16.71;81.74
43430;BME280;29028;43.234;27.896;2022-10-31T05:41:22;100526.22;;;16.75;81.67
43430;BME280;29028;43.234;27.896;2022-10-31T05:41:43;100528.72;;;16.76;81.25
43430;BME280;29028;43.234;27.896;2022-10-31T05:42:04;100531.03;;;16.73;81.22
43430;BME280;29028;43.234;27.896;2022-10-31T05:42:25;100529.34;;;16.72;81.31
43430;BME280;29028;43.234;27.896;2022-10-31T05:42:47;100525.38;;;16.74;81.43
43430;BME280;29028;43.234;27.896;2022-10-31T05:43:10;100531.88;;;16.73;81.59
43430;BME280;29028;43.234;27.896;2022-10-31T05:43:31;100518.66;;;16.77;81.55
43430;BME280;29028;43.234;27.896;2022-10-31T05:43:52;100530.31;;;16.84;81.56
43430;BME280;29028;43.234;27.896;2022-10-31T05:44:14;100532.53;;;16.93;81.10
43430;BME280;29028;43.234;27.896;2022-10-31T05:44:34;100527.09;;;16.93;80.79
43430;BME280;29028;43.234;27.896;2022-10-31T05:44:55;100535.25;;;16.93;80.74
43430;BME280;29028;43.234;27.896;2022-10-31T05:45:17;100530.66;;;16.94;80.68
43430;BME280;29028;43.234;27.896;2022-10-31T05:45:39;100535.84;;;16.95;80.70
43430;BME280;29028;43.234;27.896;2022-10-31T05:46:00;100535.13;;;17.06;79.80
43430;BME280;29028;43.234;27.896;2022-10-31T05:46:21;100540.56;;;17.06;79.35
43430;BME280;29028;43.234;27.896;2022-10-31T05:46:42;100521.69;;;17.11;78.95
43430;BME280;29028;43.234;27.896;2022-10-31T05:47:03;100527.47;;;17.21;78.69
43430;BME280;29028;43.234;27.896;2022-10-31T05:47:26;100529.59;;;17.19;78.72
43430;BME280;29028;43.234;27.896;2022-10-31T05:47:51;100534.78;;;17.21;78.83
43430;BME280;29028;43.234;27.896;2022-10-31T05:48:12;100532.69;;;17.23;78.67
43430;BME280;29028;43.234;27.896;2022-10-31T05:48:34;100542.88;;;17.27;78.71
43430;BME280;29028;43.234;27.896;2022-10-31T05:48:55;100539.47;;;17.32;78.40
43430;BME280;29028;43.234;27.896;2022-10-31T05:49:16;100544.72;;;17.33;78.32
43430;BME280;29028;43.234;27.896;2022-10-31T05:49:37;100537.84;;;17.06;78.36
43430;BME280;29028;43.234;27.896;2022-10-31T05:49:59;100543.97;;;17.02;78.81
43430;BME280;29028;43.234;27.896;2022-10-31T05:50:20;100538.16;;;16.98;78.93
43430;BME280;29028;43.234;27.896;2022-10-31T05:50:41;100537.69;;;17.01;79.28
43430;BME280;29028;43.234;27.896;2022-10-31T05:51:02;100533.31;;;17.00;79.25
43430;BME280;29028;43.234;27.896;2022-10-31T05:51:24;100536.88;;;17.01;79.41
43430;BME280;29028;43.234;27.896;2022-10-31T05:51:45;100534.16;;;17.01;79.32
43430;BME280;29028;43.234;27.896;2022-10-31T05:52:06;100533.63;;;17.10;79.09
43430;BME280;29028;43.234;27.896;2022-10-31T05:52:27;100533.63;;;17.10;79.36
43430;BME280;29028;43.234;27.896;2022-10-31T05:52:54;100539.41;;;17.20;78.94
43430;BME280;29028;43.234;27.896;2022-10-31T05:53:16;100545.63;;;17.03;79.18
43430;BME280;29028;43.234;27.896;2022-10-31T05:53:37;100535.75;;;17.08;79.36
43430;BME280;29028;43.234;27.896;2022-10-31T05:53:58;100537.09;;;16.99;79.46
43430;BME280;29028;43.234;27.896;2022-10-31T05:54:19;100545.81;;;17.08;79.48
43430;BME280;29028;43.234;27.896;2022-10-31T05:54:41;100543.59;;;16.98;79.82
43430;BME280;29028;43.234;27.896;2022-10-31T05:55:02;100543.59;;;16.98;79.97
43430;BME280;29028;43.234;27.896;2022-10-31T05:55:23;100547.13;;;16.99;80.16
43430;BME280;29028;43.234;27.896;2022-10-31T05:55:44;100542.19;;;17.14;79.79
43430;BME280;29028;43.234;27.896;2022-10-31T05:56:06;100541.75;;;17.17;79.49
43430;BME280;29028;43.234;27.896;2022-10-31T05:56:27;100546.97;;;17.18;79.48
43430;BME280;29028;43.234;27.896;2022-10-31T05:56:48;100541.91;;;17.22;79.36
43430;BME280;29028;43.234;27.896;2022-10-31T05:57:08;100542.88;;;17.27;79.32
43430;BME280;29028;43.234;27.896;2022-10-31T05:57:31;100548.13;;;17.29;79.31
43430;BME280;29028;43.234;27.896;2022-10-31T05:57:53;100545.00;;;17.25;79.44
43430;BME280;29028;43.234;27.896;2022-10-31T05:58:14;100544.38;;;17.23;79.55
43430;BME280;29028;43.234;27.896;2022-10-31T05:58:35;100539.84;;;17.17;79.55
43430;BME280;29028;43.234;27.896;2022-10-31T05:58:57;100547.53;;;17.27;79.57
43430;BME280;29028;43.234;27.896;2022-10-31T05:59:18;100547.75;;;17.25;79.52
43430;BME280;29028;43.234;27.896;2022-10-31T05:59:39;100550.63;;;17.30;79.50
43430;BME280;29028;43.234;27.896;2022-10-31T06:00:00;100545.34;;;17.35;79.40
43430;BME280;29028;43.234;27.896;2022-10-31T06:00:21;100543.44;;;17.36;79.72
43430;BME280;29028;43.234;27.896;2022-10-31T06:00:43;100549.50;;;17.38;79.72
43430;BME280;29028;43.234;27.896;2022-10-31T06:01:04;100548.84;;;17.42;79.68
43430;BME280;29028;43.234;27.896;2022-10-31T06:01:26;100547.41;;;17.40;79.27
43430;BME280;29028;43.234;27.896;2022-10-31T06:01:47;100541.59;;;17.30;79.05
43430;BME280;29028;43.234;27.896;2022-10-31T06:02:08;100545.63;;;17.27;79.04
43430;BME280;29028;43.234;27.896;2022-10-31T06:02:31;100552.44;;;17.36;79.00
43430;BME280;29028;43.234;27.896;2022-10-31T06:02:58;100547.81;;;17.37;79.17
43430;BME280;29028;43.234;27.896;2022-10-31T06:03:19;100548.06;;;17.35;79.18
43430;BME280;29028;43.234;27.896;2022-10-31T06:03:41;100544.72;;;17.33;78.76
43430;BME280;29028;43.234;27.896;2022-10-31T06:04:02;100546.84;;;17.31;79.04
43430;BME280;29028;43.234;27.896;2022-10-31T06:04:22;100550.34;;;17.14;79.06
43430;BME280;29028;43.234;27.896;2022-10-31T06:04:43;100549.09;;;16.92;80.36
43430;BME280;29028;43.234;27.896;2022-10-31T06:05:04;100548.03;;;16.93;80.76
43430;BME280;29028;43.234;27.896;2022-10-31T06:05:27;100542.91;;;17.03;80.52
43430;BME280;29028;43.234;27.896;2022-10-31T06:05:48;100527.22;;;16.80;81.19
43430;BME280;29028;43.234;27.896;2022-10-31T06:06:08;100545.94;;;16.95;81.45
43430;BME280;29028;43.234;27.896;2022-10-31T06:06:30;100548.19;;;16.98;81.50
43430;BME280;29028;43.234;27.896;2022-10-31T06:06:51;100553.63;;;16.98;81.44
43430;BME280;29028;43.234;27.896;2022-10-31T06:07:12;100544.88;;;16.96;81.50
43430;BME280;29028;43.234;27.896;2022-10-31T06:07:33;100538.59;;;16.95;81.54
43430;BME280;29028;43.234;27.896;2022-10-31T06:07:55;100541.41;;;17.07;81.20
43430;BME280;29028;43.234;27.896;2022-10-31T06:08:17;100545.75;;;17.14;80.80
43430;BME280;29028;43.234;27.896;2022-10-31T06:08:38;100544.69;;;17.15;80.56
43430;BME280;29028;43.234;27.896;2022-10-31T06:08:59;100547.41;;;17.15;80.41
43430;BME280;29028;43.234;27.896;2022-10-31T06:09:20;100549.91;;;17.17;80.62
43430;BME280;29028;43.234;27.896;2022-10-31T06:09:41;100543.41;;;17.18;80.42
43430;BME280;29028;43.234;27.896;2022-10-31T06:10:04;100550.97;;;17.16;80.43
43430;BME280;29028;43.234;27.896;2022-10-31T06:10:26;100545.91;;;17.19;80.20
43430;BME280;29028;43.234;27.896;2022-10-31T06:10:48;100545.91;;;17.19;80.19
43430;BME280;29028;43.234;27.896;2022-10-31T06:11:09;100544.84;;;17.20;80.08
43430;BME280;29028;43.234;27.896;2022-10-31T06:11:29;100545.22;;;17.24;80.12
43430;BME280;29028;43.234;27.896;2022-10-31T06:11:50;100545.84;;;17.26;79.98
43430;BME280;29028;43.234;27.896;2022-10-31T06:12:11;100547.75;;;17.25;80.09
43430;BME280;29028;43.234;27.896;2022-10-31T06:12:34;100547.97;;;17.24;79.91
43430;BME280;29028;43.234;27.896;2022-10-31T06:12:57;100550.81;;;17.11;79.67
43430;BME280;29028;43.234;27.896;2022-10-31T06:13:18;100544.47;;;17.17;79.79
43430;BME280;29028;43.234;27.896;2022-10-31T06:13:39;100538.34;;;17.21;79.57
43430;BME280;29028;43.234;27.896;2022-10-31T06:14:01;100552.72;;;17.28;79.29
43430;BME280;29028;43.234;27.896;2022-10-31T06:14:22;100551.09;;;17.21;79.04
43430;BME280;29028;43.234;27.896;2022-10-31T06:14:43;100554.06;;;17.19;79.15
43430;BME280;29028;43.234;27.896;2022-10-31T06:15:06;100544.09;;;17.13;79.43
43430;BME280;29028;43.234;27.896;2022-10-31T06:15:27;100548.31;;;17.09;79.70
43430;BME280;29028;43.234;27.896;2022-10-31T06:15:48;100556.69;;;17.08;80.06
43430;BME280;29028;43.234;27.896;2022-10-31T06:16:08;100555.75;;;16.96;80.30
43430;BME280;29028;43.234;27.896;2022-10-31T06:16:30;100543.47;;;16.87;80.63
43430;BME280;29028;43.234;27.896;2022-10-31T06:16:51;100549.59;;;16.82;81.16
43430;BME280;29028;43.234;27.896;2022-10-31T06:17:12;100548.56;;;16.77;81.40
43430;BME280;29028;43.234;27.896;2022-10-31T06:17:35;100550.19;;;16.84;81.57
43430;BME280;29028;43.234;27.896;2022-10-31T06:18:00;100549.59;;;16.82;81.57
43430;BME280;29028;43.234;27.896;2022-10-31T06:18:25;100548.69;;;16.88;81.72
43430;BME280;29028;43.234;27.896;2022-10-31T06:18:46;100552.31;;;16.82;81.90
43430;BME280;29028;43.234;27.896;2022-10-31T06:19:07;100556.44;;;16.91;81.86
43430;BME280;29028;43.234;27.896;2022-10-31T06:19:28;100545.03;;;17.01;81.61
43430;BME280;29028;43.234;27.896;2022-10-31T06:19:49;100549.97;;;17.10;81.22
43430;BME280;29028;43.234;27.896;2022-10-31T06:20:11;100547.25;;;17.10;81.11
43430;BME280;29028;43.234;27.896;2022-10-31T06:20:32;100545.75;;;17.14;81.05
43430;BME280;29028;43.234;27.896;2022-10-31T06:20:53;100555.78;;;17.14;80.99
43430;BME280;29028;43.234;27.896;2022-10-31T06:21:15;100550.69;;;17.24;80.85
43430;BME280;29028;43.234;27.896;2022-10-31T06:21:36;100550.28;;;17.20;80.89
43430;BME280;29028;43.234;27.896;2022-10-31T06:21:57;100555.28;;;17.23;80.74
43430;BME280;29028;43.234;27.896;2022-10-31T06:22:18;100550.28;;;17.20;80.77
43430;BME280;29028;43.234;27.896;2022-10-31T06:22:40;100541.06;;;17.21;80.95
43430;BME280;29028;43.234;27.896;2022-10-31T06:23:01;100547.78;;;17.19;80.70
43430;BME280;29028;43.234;27.896;2022-10-31T06:23:22;100551.19;;;17.14;81.00
43430;BME280;29028;43.234;27.896;2022-10-31T06:23:43;100546.41;;;17.10;81.27
43430;BME280;29028;43.234;27.896;2022-10-31T06:24:05;100545.75;;;17.14;81.28
43430;BME280;29028;43.234;27.896;2022-10-31T06:24:26;100552.69;;;17.10;81.47
43430;BME280;29028;43.234;27.896;2022-10-31T06:24:46;100553.28;;;17.12;81.65
43430;BME280;29028;43.234;27.896;2022-10-31T06:25:07;100560.41;;;17.13;81.69
43430;BME280;29028;43.234;27.896;2022-10-31T06:25:30;100544.91;;;17.14;81.70
43430;BME280;29028;43.234;27.896;2022-10-31T06:25:51;100552.56;;;17.23;80.58
43430;BME280;29028;43.234;27.896;2022-10-31T06:26:11;100552.56;;;17.23;80.32
43430;BME280;29028;43.234;27.896;2022-10-31T06:26:32;100557.03;;;17.18;80.08
43430;BME280;29028;43.234;27.896;2022-10-31T06:26:53;100555.34;;;17.17;80.12
43430;BME280;29028;43.234;27.896;2022-10-31T06:27:15;100556.16;;;17.17;79.93
43430;BME280;29028;43.234;27.896;2022-10-31T06:27:36;100551.53;;;17.24;80.05
43430;BME280;29028;43.234;27.896;2022-10-31T06:27:56;100553.56;;;17.29;79.91
43430;BME280;29028;43.234;27.896;2022-10-31T06:28:17;100554.16;;;17.31;79.94
43430;BME280;29028;43.234;27.896;2022-10-31T06:28:38;100556.22;;;17.35;79.94
43430;BME280;29028;43.234;27.896;2022-10-31T06:29:00;100554.06;;;17.44;79.65
43430;BME280;29028;43.234;27.896;2022-10-31T06:29:21;100550.66;;;17.48;79.34
43430;BME280;29028;43.234;27.896;2022-10-31T06:29:42;100561.03;;;17.58;78.79
43430;BME280;29028;43.234;27.896;2022-10-31T06:30:04;100561.41;;;17.61;78.75
43430;BME280;29028;43.234;27.896;2022-10-31T06:30:25;100555.75;;;17.63;78.54
43430;BME280;29028;43.234;27.896;2022-10-31T06:30:47;100563.25;;;17.67;78.58
43430;BME280;29028;43.234;27.896;2022-10-31T06:31:07;100559.22;;;17.70;78.29
43430;BME280;29028;43.234;27.896;2022-10-31T06:31:28;100557.94;;;17.72;78.21
43430;BME280;29028;43.234;27.896;2022-10-31T06:31:51;100561.66;;;17.78;77.95
43430;BME280;29028;43.234;27.896;2022-10-31T06:32:12;100556.34;;;17.83;78.04
43430;BME280;29028;43.234;27.896;2022-10-31T06:32:35;100556.13;;;17.84;77.53
43430;BME280;29028;43.234;27.896;2022-10-31T06:33:01;100559.38;;;17.93;77.46
43430;BME280;29028;43.234;27.896;2022-10-31T06:33:22;100556.56;;;17.99;77.58
43430;BME280;29028;43.234;27.896;2022-10-31T06:33:44;100557.19;;;18.01;76.97
43430;BME280;29028;43.234;27.896;2022-10-31T06:34:05;100554.22;;;18.03;76.61
43430;BME280;29028;43.234;27.896;2022-10-31T06:34:26;100554.97;;;18.10;76.44
43430;BME280;29028;43.234;27.896;2022-10-31T06:34:47;100567.75;;;18.09;75.96
43430;BME280;29028;43.234;27.896;2022-10-31T06:35:08;100556.41;;;18.12;76.20
43430;BME280;29028;43.234;27.896;2022-10-31T06:35:30;100554.25;;;18.14;76.10
43430;BME280;29028;43.234;27.896;2022-10-31T06:35:51;100565.81;;;18.28;75.62
43430;BME280;29028;43.234;27.896;2022-10-31T06:36:12;100559.56;;;18.27;75.28
43430;BME280;29028;43.234;27.896;2022-10-31T06:36:33;100558.66;;;18.33;75.42
43430;BME280;29028;43.234;27.896;2022-10-31T06:36:55;100568.50;;;18.34;75.21
43430;BME280;29028;43.234;27.896;2022-10-31T06:37:15;100563.94;;;18.28;74.91
43430;BME280;29028;43.234;27.896;2022-10-31T06:37:37;100557.13;;;18.19;75.19
43430;BME280;29028;43.234;27.896;2022-10-31T06:37:58;100565.25;;;18.26;75.12
43430;BME280;29028;43.234;27.896;2022-10-31T06:38:19;100571.28;;;18.28;74.96
43430;BME280;29028;43.234;27.896;2022-10-31T06:38:40;100561.81;;;18.30;75.05
43430;BME280;29028;43.234;27.896;2022-10-31T06:39:01;100562.38;;;18.21;75.11
43430;BME280;29028;43.234;27.896;2022-10-31T06:39:22;100573.34;;;18.32;75.28
43430;BME280;29028;43.234;27.896;2022-10-31T06:39:44;100564.72;;;18.35;75.21
43430;BME280;29028;43.234;27.896;2022-10-31T06:40:06;100562.13;;;18.22;74.54
43430;BME280;29028;43.234;27.896;2022-10-31T06:40:27;100563.38;;;18.08;75.06
43430;BME280;29028;43.234;27.896;2022-10-31T06:40:47;100567.31;;;18.12;75.06
43430;BME280;29028;43.234;27.896;2022-10-31T06:41:09;100574.69;;;18.23;75.08
43430;BME280;29028;43.234;27.896;2022-10-31T06:41:30;100576.25;;;18.49;74.59
43430;BME280;29028;43.234;27.896;2022-10-31T06:41:51;100582.31;;;18.51;74.10
43430;BME280;29028;43.234;27.896;2022-10-31T06:42:12;100568.44;;;18.52;73.53
43430;BME280;29028;43.234;27.896;2022-10-31T06:42:34;100575.81;;;18.52;73.26
43430;BME280;29028;43.234;27.896;2022-10-31T06:42:58;100577.47;;;18.53;73.19
43430;BME280;29028;43.234;27.896;2022-10-31T06:43:19;100581.50;;;18.50;73.04
43430;BME280;29028;43.234;27.896;2022-10-31T06:43:41;100574.31;;;18.38;73.32
43430;BME280;29028;43.234;27.896;2022-10-31T06:44:01;100571.38;;;18.39;73.73
43430;BME280;29028;43.234;27.896;2022-10-31T06:44:22;100584.66;;;18.47;73.68
43430;BME280;29028;43.234;27.896;2022-10-31T06:44:43;100575.69;;;18.58;73.45
43430;BME280;29028;43.234;27.896;2022-10-31T06:45:06;100574.31;;;18.67;73.04
43430;BME280;29028;43.234;27.896;2022-10-31T06:45:27;100577.75;;;18.74;72.89
43430;BME280;29028;43.234;27.896;2022-10-31T06:45:48;100580.19;;;18.82;72.61
43430;BME280;29028;43.234;27.896;2022-10-31T06:46:09;100583.03;;;18.87;72.21
43430;BME280;29028;43.234;27.896;2022-10-31T06:46:29;100576.16;;;18.85;72.20
43430;BME280;29028;43.234;27.896;2022-10-31T06:46:51;100579.41;;;18.75;72.10
43430;BME280;29028;43.234;27.896;2022-10-31T06:47:12;100584.28;;;18.73;71.84
43430;BME280;29028;43.234;27.896;2022-10-31T06:47:33;100580.72;;;18.73;72.20
43430;BME280;29028;43.234;27.896;2022-10-31T06:47:57;100587.25;;;18.72;72.38
43430;BME280;29028;43.234;27.896;2022-10-31T06:48:19;100583.09;;;18.69;72.58
43430;BME280;29028;43.234;27.896;2022-10-31T06:48:40;100580.69;;;18.61;72.73
43430;BME280;29028;43.234;27.896;2022-10-31T06:49:01;100586.53;;;18.65;72.91
43430;BME280;29028;43.234;27.896;2022-10-31T06:49:22;100587.72;;;18.69;72.85
43430;BME280;29028;43.234;27.896;2022-10-31T06:49:44;100580.97;;;18.83;72.58
43430;BME280;29028;43.234;27.896;2022-10-31T06:50:06;100581.69;;;18.90;72.22
43430;BME280;29028;43.234;27.896;2022-10-31T06:50:27;100580.88;;;18.89;72.38
43430;BME280;29028;43.234;27.896;2022-10-31T06:50:48;100585.06;;;18.92;72.26
43430;BME280;29028;43.234;27.896;2022-10-31T06:51:10;100571.31;;;18.98;72.14
43430;BME280;29028;43.234;27.896;2022-10-31T06:51:31;100582.81;;;19.00;71.85
43430;BME280;29028;43.234;27.896;2022-10-31T06:51:52;100578.44;;;18.99;71.78
43430;BME280;29028;43.234;27.896;2022-10-31T06:52:12;100583.88;;;18.99;71.66